<?xml version="1.0" encoding="UTF-8" standalone="no" ?>
<gpx xmlns="http://www.topografix.com/GPX/1/1" xmlns:xsi="http://www.w3.org/2001/XMLSchema-instance" xsi:schemaLocation="http://www.topografix.com/GPX/1/1 http://www.topografix.com/GPX/1/1/gpx.xsd" version="1.1" creator="VisuGPX - https://www.visugpx.com">
  <metadata>
    <name>20150730 - Capanelle Renoso Capanelle</name>
    <desc><![CDATA[Capanelle / Lac de Bastani / Monte Renoso / Capanelle

GR20 et variantes

GR20SUD201507]]></desc>
  </metadata>
  <trk>
    <name><![CDATA[2015-07-30 08:05]]></name>
    <desc><![CDATA[<h1>OruxMaps</h1><br /><hr align="center" width="480" style="height: 2px; width: 517px"/><h2>Nom: 2015-07-30 08:05</h2><br /><p>Temps de départ: 07/30/2015 08:06</p><p>Temps d'arrivée: 07/30/2015 15:16</p><p>Distance: 8,1km (07:10)</p><p>Temps déplacement: 03:17</p><p>Vitesse moyenne: 1,1km/h</p><p>Vitesse moyenne: 2,5km/h</p><p>Vitess Max.: 7km/h</p><p>Altitude minimale: 1590m</p><p>Altitude maximale: 2351m</p><p>Vitesse d'élévation: 195,5m/h</p><p>Vitesse de descente: -309,6m/h</p><p>Gain Altitude: 806m</p><p>Perte Altitude: -873m</p><p>Temps d'élévation: 04:07</p><p>Temps de descente: 02:49</p><hr align="center" width="480" style="height: 2px; width: 517px"/>]]></desc>
    <trkseg>
      <trkpt lat="42.07725" lon="9.15019">
        <ele>1645.47</ele>
        <time>2015-07-30T06:06:14Z</time>
      </trkpt>
      <trkpt lat="42.07707" lon="9.15026">
        <ele>1603.21</ele>
        <time>2015-07-30T06:13:40Z</time>
      </trkpt>
      <trkpt lat="42.0769" lon="9.15014">
        <ele>1603.96</ele>
        <time>2015-07-30T06:13:55Z</time>
      </trkpt>
      <trkpt lat="42.07673" lon="9.15006">
        <ele>1603.96</ele>
        <time>2015-07-30T06:14:12Z</time>
      </trkpt>
      <trkpt lat="42.07656" lon="9.14997">
        <ele>1606.93</ele>
        <time>2015-07-30T06:14:40Z</time>
      </trkpt>
      <trkpt lat="42.07638" lon="9.14993">
        <ele>1609.89</ele>
        <time>2015-07-30T06:15:20Z</time>
      </trkpt>
      <trkpt lat="42.0762" lon="9.14998">
        <ele>1617.39</ele>
        <time>2015-07-30T06:16:20Z</time>
      </trkpt>
      <trkpt lat="42.07602" lon="9.15001">
        <ele>1623.45</ele>
        <time>2015-07-30T06:17:22Z</time>
      </trkpt>
      <trkpt lat="42.07586" lon="9.15013">
        <ele>1635.33</ele>
        <time>2015-07-30T06:18:34Z</time>
      </trkpt>
      <trkpt lat="42.07569" lon="9.15006">
        <ele>1642.22</ele>
        <time>2015-07-30T06:19:33Z</time>
      </trkpt>
      <trkpt lat="42.07556" lon="9.1499">
        <ele>1644.6</ele>
        <time>2015-07-30T06:19:51Z</time>
      </trkpt>
      <trkpt lat="42.07545" lon="9.14968">
        <ele>1656.08</ele>
        <time>2015-07-30T06:20:50Z</time>
      </trkpt>
      <trkpt lat="42.07542" lon="9.14943">
        <ele>1655.98</ele>
        <time>2015-07-30T06:21:21Z</time>
      </trkpt>
      <trkpt lat="42.07536" lon="9.1492">
        <ele>1659.45</ele>
        <time>2015-07-30T06:21:58Z</time>
      </trkpt>
      <trkpt lat="42.07535" lon="9.14895">
        <ele>1662.95</ele>
        <time>2015-07-30T06:22:26Z</time>
      </trkpt>
      <trkpt lat="42.07535" lon="9.1487">
        <ele>1665.09</ele>
        <time>2015-07-30T06:23:01Z</time>
      </trkpt>
      <trkpt lat="42.0753" lon="9.14847">
        <ele>1670.97</ele>
        <time>2015-07-30T06:23:49Z</time>
      </trkpt>
      <trkpt lat="42.07523" lon="9.14824">
        <ele>1675.44</ele>
        <time>2015-07-30T06:24:23Z</time>
      </trkpt>
      <trkpt lat="42.07512" lon="9.14804">
        <ele>1678.86</ele>
        <time>2015-07-30T06:25:01Z</time>
      </trkpt>
      <trkpt lat="42.07505" lon="9.14827">
        <ele>1679.6</ele>
        <time>2015-07-30T06:25:39Z</time>
      </trkpt>
      <trkpt lat="42.07502" lon="9.14852">
        <ele>1679.96</ele>
        <time>2015-07-30T06:26:02Z</time>
      </trkpt>
      <trkpt lat="42.07496" lon="9.14875">
        <ele>1683.21</ele>
        <time>2015-07-30T06:26:35Z</time>
      </trkpt>
      <trkpt lat="42.07489" lon="9.14897">
        <ele>1692.17</ele>
        <time>2015-07-30T06:27:16Z</time>
      </trkpt>
      <trkpt lat="42.07482" lon="9.1492">
        <ele>1695.2</ele>
        <time>2015-07-30T06:27:43Z</time>
      </trkpt>
      <trkpt lat="42.07478" lon="9.14944">
        <ele>1695.95</ele>
        <time>2015-07-30T06:28:04Z</time>
      </trkpt>
      <trkpt lat="42.07475" lon="9.14969">
        <ele>1695.56</ele>
        <time>2015-07-30T06:28:25Z</time>
      </trkpt>
      <trkpt lat="42.07472" lon="9.14994">
        <ele>1696.97</ele>
        <time>2015-07-30T06:28:51Z</time>
      </trkpt>
      <trkpt lat="42.07468" lon="9.15018">
        <ele>1699.47</ele>
        <time>2015-07-30T06:29:11Z</time>
      </trkpt>
      <trkpt lat="42.07456" lon="9.15038">
        <ele>1704.38</ele>
        <time>2015-07-30T06:29:38Z</time>
      </trkpt>
      <trkpt lat="42.07442" lon="9.15023">
        <ele>1704.4</ele>
        <time>2015-07-30T06:30:23Z</time>
      </trkpt>
      <trkpt lat="42.07436" lon="9.15">
        <ele>1707.97</ele>
        <time>2015-07-30T06:31:06Z</time>
      </trkpt>
      <trkpt lat="42.07432" lon="9.14975">
        <ele>1714.46</ele>
        <time>2015-07-30T06:31:42Z</time>
      </trkpt>
      <trkpt lat="42.0743" lon="9.14951">
        <ele>1718.46</ele>
        <time>2015-07-30T06:32:10Z</time>
      </trkpt>
      <trkpt lat="42.07429" lon="9.14926">
        <ele>1721.03</ele>
        <time>2015-07-30T06:32:35Z</time>
      </trkpt>
      <trkpt lat="42.07426" lon="9.14901">
        <ele>1721.71</ele>
        <time>2015-07-30T06:33:01Z</time>
      </trkpt>
      <trkpt lat="42.07417" lon="9.14879">
        <ele>1723.96</ele>
        <time>2015-07-30T06:33:34Z</time>
      </trkpt>
      <trkpt lat="42.07415" lon="9.14855">
        <ele>1726.47</ele>
        <time>2015-07-30T06:34:11Z</time>
      </trkpt>
      <trkpt lat="42.07408" lon="9.14832">
        <ele>1728.22</ele>
        <time>2015-07-30T06:34:41Z</time>
      </trkpt>
      <trkpt lat="42.07404" lon="9.14807">
        <ele>1730.46</ele>
        <time>2015-07-30T06:35:10Z</time>
      </trkpt>
      <trkpt lat="42.07403" lon="9.14783">
        <ele>1733.4</ele>
        <time>2015-07-30T06:35:43Z</time>
      </trkpt>
      <trkpt lat="42.07401" lon="9.14758">
        <ele>1738.45</ele>
        <time>2015-07-30T06:36:18Z</time>
      </trkpt>
      <trkpt lat="42.07392" lon="9.14736">
        <ele>1740.96</ele>
        <time>2015-07-30T06:36:57Z</time>
      </trkpt>
      <trkpt lat="42.07381" lon="9.14716">
        <ele>1747.31</ele>
        <time>2015-07-30T06:37:40Z</time>
      </trkpt>
      <trkpt lat="42.07365" lon="9.14705">
        <ele>1751.47</ele>
        <time>2015-07-30T06:38:26Z</time>
      </trkpt>
      <trkpt lat="42.07352" lon="9.14688">
        <ele>1759.34</ele>
        <time>2015-07-30T06:39:06Z</time>
      </trkpt>
      <trkpt lat="42.07351" lon="9.14663">
        <ele>1762.82</ele>
        <time>2015-07-30T06:40:01Z</time>
      </trkpt>
      <trkpt lat="42.07335" lon="9.1465">
        <ele>1775.79</ele>
        <time>2015-07-30T06:40:44Z</time>
      </trkpt>
      <trkpt lat="42.07331" lon="9.14627">
        <ele>1779.45</ele>
        <time>2015-07-30T06:41:42Z</time>
      </trkpt>
      <trkpt lat="42.07324" lon="9.14604">
        <ele>1782.78</ele>
        <time>2015-07-30T06:42:25Z</time>
      </trkpt>
      <trkpt lat="42.07328" lon="9.1458">
        <ele>1794.59</ele>
        <time>2015-07-30T06:44:27Z</time>
      </trkpt>
      <trkpt lat="42.0733" lon="9.14556">
        <ele>1806.07</ele>
        <time>2015-07-30T06:46:05Z</time>
      </trkpt>
      <trkpt lat="42.07336" lon="9.14532">
        <ele>1812.43</ele>
        <time>2015-07-30T06:47:27Z</time>
      </trkpt>
      <trkpt lat="42.07338" lon="9.14508">
        <ele>1822.4</ele>
        <time>2015-07-30T06:48:25Z</time>
      </trkpt>
      <trkpt lat="42.07327" lon="9.14489">
        <ele>1832.96</ele>
        <time>2015-07-30T06:49:24Z</time>
      </trkpt>
      <trkpt lat="42.07321" lon="9.14466">
        <ele>1837.46</ele>
        <time>2015-07-30T06:50:06Z</time>
      </trkpt>
      <trkpt lat="42.07309" lon="9.14448">
        <ele>1846.18</ele>
        <time>2015-07-30T06:51:12Z</time>
      </trkpt>
      <trkpt lat="42.07306" lon="9.14423">
        <ele>1851.98</ele>
        <time>2015-07-30T06:52:21Z</time>
      </trkpt>
      <trkpt lat="42.07306" lon="9.14399">
        <ele>1860.46</ele>
        <time>2015-07-30T06:53:18Z</time>
      </trkpt>
      <trkpt lat="42.07298" lon="9.14377">
        <ele>1867.38</ele>
        <time>2015-07-30T06:54:17Z</time>
      </trkpt>
      <trkpt lat="42.07285" lon="9.1436">
        <ele>1873.46</ele>
        <time>2015-07-30T06:54:54Z</time>
      </trkpt>
      <trkpt lat="42.07267" lon="9.14352">
        <ele>1877.34</ele>
        <time>2015-07-30T06:55:22Z</time>
      </trkpt>
      <trkpt lat="42.07255" lon="9.14334">
        <ele>1878.72</ele>
        <time>2015-07-30T06:56:02Z</time>
      </trkpt>
      <trkpt lat="42.07245" lon="9.14314">
        <ele>1881.94</ele>
        <time>2015-07-30T06:56:49Z</time>
      </trkpt>
      <trkpt lat="42.07232" lon="9.14296">
        <ele>1883.53</ele>
        <time>2015-07-30T06:57:27Z</time>
      </trkpt>
      <trkpt lat="42.07217" lon="9.14282">
        <ele>1885.48</ele>
        <time>2015-07-30T06:58:10Z</time>
      </trkpt>
      <trkpt lat="42.07199" lon="9.14281">
        <ele>1883.87</ele>
        <time>2015-07-30T07:08:08Z</time>
      </trkpt>
      <trkpt lat="42.07182" lon="9.14274">
        <ele>1886.47</ele>
        <time>2015-07-30T07:08:33Z</time>
      </trkpt>
      <trkpt lat="42.07179" lon="9.1425">
        <ele>1894.46</ele>
        <time>2015-07-30T07:09:21Z</time>
      </trkpt>
      <trkpt lat="42.0717" lon="9.14228">
        <ele>1896.47</ele>
        <time>2015-07-30T07:09:51Z</time>
      </trkpt>
      <trkpt lat="42.07172" lon="9.14203">
        <ele>1896.46</ele>
        <time>2015-07-30T07:10:12Z</time>
      </trkpt>
      <trkpt lat="42.07162" lon="9.14183">
        <ele>1898.84</ele>
        <time>2015-07-30T07:10:47Z</time>
      </trkpt>
      <trkpt lat="42.07144" lon="9.14174">
        <ele>1899.45</ele>
        <time>2015-07-30T07:11:26Z</time>
      </trkpt>
      <trkpt lat="42.07126" lon="9.14169">
        <ele>1902.6</ele>
        <time>2015-07-30T07:11:53Z</time>
      </trkpt>
      <trkpt lat="42.07109" lon="9.14162">
        <ele>1899.48</ele>
        <time>2015-07-30T07:12:19Z</time>
      </trkpt>
      <trkpt lat="42.0709" lon="9.14156">
        <ele>1906.08</ele>
        <time>2015-07-30T07:12:51Z</time>
      </trkpt>
      <trkpt lat="42.07073" lon="9.14145">
        <ele>1918.72</ele>
        <time>2015-07-30T07:13:30Z</time>
      </trkpt>
      <trkpt lat="42.07056" lon="9.14139">
        <ele>1916.9</ele>
        <time>2015-07-30T07:14:25Z</time>
      </trkpt>
      <trkpt lat="42.0705" lon="9.14116">
        <ele>1922.1</ele>
        <time>2015-07-30T07:15:05Z</time>
      </trkpt>
      <trkpt lat="42.07055" lon="9.14093">
        <ele>1920.74</ele>
        <time>2015-07-30T07:15:42Z</time>
      </trkpt>
      <trkpt lat="42.07059" lon="9.14069">
        <ele>1926.35</ele>
        <time>2015-07-30T07:16:19Z</time>
      </trkpt>
      <trkpt lat="42.07061" lon="9.14045">
        <ele>1926.25</ele>
        <time>2015-07-30T07:16:55Z</time>
      </trkpt>
      <trkpt lat="42.07051" lon="9.14024">
        <ele>1937.28</ele>
        <time>2015-07-30T07:17:54Z</time>
      </trkpt>
      <trkpt lat="42.07054" lon="9.13999">
        <ele>1936.43</ele>
        <time>2015-07-30T07:18:53Z</time>
      </trkpt>
      <trkpt lat="42.07057" lon="9.13975">
        <ele>1942.42</ele>
        <time>2015-07-30T07:19:41Z</time>
      </trkpt>
      <trkpt lat="42.07053" lon="9.13951">
        <ele>1956.4</ele>
        <time>2015-07-30T07:20:27Z</time>
      </trkpt>
      <trkpt lat="42.07051" lon="9.13926">
        <ele>1951.72</ele>
        <time>2015-07-30T07:21:15Z</time>
      </trkpt>
      <trkpt lat="42.07053" lon="9.13902">
        <ele>1951</ele>
        <time>2015-07-30T07:22:04Z</time>
      </trkpt>
      <trkpt lat="42.07045" lon="9.13881">
        <ele>1972.46</ele>
        <time>2015-07-30T07:22:59Z</time>
      </trkpt>
      <trkpt lat="42.0705" lon="9.13857">
        <ele>1973.47</ele>
        <time>2015-07-30T07:23:42Z</time>
      </trkpt>
      <trkpt lat="42.0705" lon="9.13833">
        <ele>1978.52</ele>
        <time>2015-07-30T07:24:28Z</time>
      </trkpt>
      <trkpt lat="42.07052" lon="9.13808">
        <ele>1980.72</ele>
        <time>2015-07-30T07:25:02Z</time>
      </trkpt>
      <trkpt lat="42.07041" lon="9.13789">
        <ele>1995.16</ele>
        <time>2015-07-30T07:25:54Z</time>
      </trkpt>
      <trkpt lat="42.07029" lon="9.13769">
        <ele>1993.4</ele>
        <time>2015-07-30T07:26:42Z</time>
      </trkpt>
      <trkpt lat="42.07018" lon="9.1375">
        <ele>2002.34</ele>
        <time>2015-07-30T07:27:29Z</time>
      </trkpt>
      <trkpt lat="42.07013" lon="9.13727">
        <ele>2006.97</ele>
        <time>2015-07-30T07:28:47Z</time>
      </trkpt>
      <trkpt lat="42.06995" lon="9.13721">
        <ele>2010.16</ele>
        <time>2015-07-30T07:29:34Z</time>
      </trkpt>
      <trkpt lat="42.06988" lon="9.13698">
        <ele>2018.45</ele>
        <time>2015-07-30T07:30:02Z</time>
      </trkpt>
      <trkpt lat="42.06985" lon="9.13673">
        <ele>2024.53</ele>
        <time>2015-07-30T07:30:35Z</time>
      </trkpt>
      <trkpt lat="42.06976" lon="9.13651">
        <ele>2031.56</ele>
        <time>2015-07-30T07:31:14Z</time>
      </trkpt>
      <trkpt lat="42.06966" lon="9.13632">
        <ele>2037.42</ele>
        <time>2015-07-30T07:31:46Z</time>
      </trkpt>
      <trkpt lat="42.06954" lon="9.13613">
        <ele>2016.11</ele>
        <time>2015-07-30T07:32:20Z</time>
      </trkpt>
      <trkpt lat="42.06944" lon="9.13593">
        <ele>2012.16</ele>
        <time>2015-07-30T07:32:48Z</time>
      </trkpt>
      <trkpt lat="42.06932" lon="9.13574">
        <ele>2034.62</ele>
        <time>2015-07-30T07:33:21Z</time>
      </trkpt>
      <trkpt lat="42.06923" lon="9.13553">
        <ele>2034.88</ele>
        <time>2015-07-30T07:33:47Z</time>
      </trkpt>
      <trkpt lat="42.06914" lon="9.13531">
        <ele>2040.57</ele>
        <time>2015-07-30T07:34:13Z</time>
      </trkpt>
      <trkpt lat="42.06902" lon="9.13512">
        <ele>2044.14</ele>
        <time>2015-07-30T07:34:41Z</time>
      </trkpt>
      <trkpt lat="42.06884" lon="9.1351">
        <ele>2040.16</ele>
        <time>2015-07-30T07:35:06Z</time>
      </trkpt>
      <trkpt lat="42.06868" lon="9.13497">
        <ele>2048.4</ele>
        <time>2015-07-30T07:36:11Z</time>
      </trkpt>
      <trkpt lat="42.06851" lon="9.13493">
        <ele>2062.33</ele>
        <time>2015-07-30T07:37:31Z</time>
      </trkpt>
      <trkpt lat="42.06832" lon="9.13493">
        <ele>2077.07</ele>
        <time>2015-07-30T07:39:33Z</time>
      </trkpt>
      <trkpt lat="42.0682" lon="9.13474">
        <ele>2084.02</ele>
        <time>2015-07-30T07:40:42Z</time>
      </trkpt>
      <trkpt lat="42.06806" lon="9.1346">
        <ele>2091.46</ele>
        <time>2015-07-30T07:41:56Z</time>
      </trkpt>
      <trkpt lat="42.06797" lon="9.13438">
        <ele>2093.55</ele>
        <time>2015-07-30T07:42:31Z</time>
      </trkpt>
      <trkpt lat="42.0678" lon="9.1343">
        <ele>2093.22</ele>
        <time>2015-07-30T07:43:00Z</time>
      </trkpt>
      <trkpt lat="42.06761" lon="9.13432">
        <ele>2098.4</ele>
        <time>2015-07-30T07:43:45Z</time>
      </trkpt>
      <trkpt lat="42.06746" lon="9.13419">
        <ele>2102.54</ele>
        <time>2015-07-30T07:44:35Z</time>
      </trkpt>
      <trkpt lat="42.06729" lon="9.1341">
        <ele>2096.53</ele>
        <time>2015-07-30T07:46:34Z</time>
      </trkpt>
      <trkpt lat="42.06718" lon="9.13391">
        <ele>2095.62</ele>
        <time>2015-07-30T08:02:34Z</time>
      </trkpt>
      <trkpt lat="42.06712" lon="9.13367">
        <ele>2100.71</ele>
        <time>2015-07-30T08:04:16Z</time>
      </trkpt>
      <trkpt lat="42.06718" lon="9.13344">
        <ele>2106.39</ele>
        <time>2015-07-30T08:04:43Z</time>
      </trkpt>
      <trkpt lat="42.06722" lon="9.1332">
        <ele>2103.07</ele>
        <time>2015-07-30T08:05:08Z</time>
      </trkpt>
      <trkpt lat="42.06719" lon="9.13297">
        <ele>2108.87</ele>
        <time>2015-07-30T08:05:48Z</time>
      </trkpt>
      <trkpt lat="42.06723" lon="9.13273">
        <ele>2108.03</ele>
        <time>2015-07-30T08:06:46Z</time>
      </trkpt>
      <trkpt lat="42.06737" lon="9.13257">
        <ele>2101.22</ele>
        <time>2015-07-30T08:07:11Z</time>
      </trkpt>
      <trkpt lat="42.06739" lon="9.13233">
        <ele>2110.43</ele>
        <time>2015-07-30T08:07:29Z</time>
      </trkpt>
      <trkpt lat="42.06745" lon="9.13209">
        <ele>2115.69</ele>
        <time>2015-07-30T08:08:04Z</time>
      </trkpt>
      <trkpt lat="42.06755" lon="9.13188">
        <ele>2120.44</ele>
        <time>2015-07-30T08:08:37Z</time>
      </trkpt>
      <trkpt lat="42.06766" lon="9.13168">
        <ele>2124.59</ele>
        <time>2015-07-30T08:09:19Z</time>
      </trkpt>
      <trkpt lat="42.06769" lon="9.13144">
        <ele>2125.82</ele>
        <time>2015-07-30T08:10:08Z</time>
      </trkpt>
      <trkpt lat="42.06779" lon="9.13124">
        <ele>2131.96</ele>
        <time>2015-07-30T08:10:53Z</time>
      </trkpt>
      <trkpt lat="42.06786" lon="9.13101">
        <ele>2146.29</ele>
        <time>2015-07-30T08:11:42Z</time>
      </trkpt>
      <trkpt lat="42.06779" lon="9.13078">
        <ele>2156.43</ele>
        <time>2015-07-30T08:12:38Z</time>
      </trkpt>
      <trkpt lat="42.06767" lon="9.13058">
        <ele>2166.96</ele>
        <time>2015-07-30T08:15:40Z</time>
      </trkpt>
      <trkpt lat="42.06761" lon="9.13034">
        <ele>2170.25</ele>
        <time>2015-07-30T08:16:09Z</time>
      </trkpt>
      <trkpt lat="42.06755" lon="9.13011">
        <ele>2133.21</ele>
        <time>2015-07-30T08:17:15Z</time>
      </trkpt>
      <trkpt lat="42.06754" lon="9.12986">
        <ele>2161.9</ele>
        <time>2015-07-30T08:17:59Z</time>
      </trkpt>
      <trkpt lat="42.06742" lon="9.12967">
        <ele>2165.79</ele>
        <time>2015-07-30T08:18:48Z</time>
      </trkpt>
      <trkpt lat="42.06728" lon="9.12952">
        <ele>2194.19</ele>
        <time>2015-07-30T08:19:19Z</time>
      </trkpt>
      <trkpt lat="42.0671" lon="9.12947">
        <ele>2203.07</ele>
        <time>2015-07-30T08:20:02Z</time>
      </trkpt>
      <trkpt lat="42.06696" lon="9.1293">
        <ele>2204.87</ele>
        <time>2015-07-30T08:20:52Z</time>
      </trkpt>
      <trkpt lat="42.06683" lon="9.12913">
        <ele>2211.46</ele>
        <time>2015-07-30T08:22:01Z</time>
      </trkpt>
      <trkpt lat="42.06665" lon="9.12906">
        <ele>2222.4</ele>
        <time>2015-07-30T08:22:42Z</time>
      </trkpt>
      <trkpt lat="42.0665" lon="9.12891">
        <ele>2234.73</ele>
        <time>2015-07-30T08:24:02Z</time>
      </trkpt>
      <trkpt lat="42.06633" lon="9.12883">
        <ele>2238.85</ele>
        <time>2015-07-30T08:24:53Z</time>
      </trkpt>
      <trkpt lat="42.06628" lon="9.1286">
        <ele>2239.49</ele>
        <time>2015-07-30T08:25:20Z</time>
      </trkpt>
      <trkpt lat="42.06612" lon="9.12847">
        <ele>2246.38</ele>
        <time>2015-07-30T08:25:47Z</time>
      </trkpt>
      <trkpt lat="42.06595" lon="9.12857">
        <ele>2244.03</ele>
        <time>2015-07-30T08:26:04Z</time>
      </trkpt>
      <trkpt lat="42.06576" lon="9.12863">
        <ele>2245.4</ele>
        <time>2015-07-30T08:26:23Z</time>
      </trkpt>
      <trkpt lat="42.06561" lon="9.12876">
        <ele>2247.43</ele>
        <time>2015-07-30T08:27:34Z</time>
      </trkpt>
      <trkpt lat="42.06545" lon="9.12887">
        <ele>2247.93</ele>
        <time>2015-07-30T08:27:50Z</time>
      </trkpt>
      <trkpt lat="42.06527" lon="9.12893">
        <ele>2252.47</ele>
        <time>2015-07-30T08:29:00Z</time>
      </trkpt>
      <trkpt lat="42.0651" lon="9.12902">
        <ele>2255.2</ele>
        <time>2015-07-30T08:29:18Z</time>
      </trkpt>
      <trkpt lat="42.06491" lon="9.12909">
        <ele>2252.48</ele>
        <time>2015-07-30T08:29:34Z</time>
      </trkpt>
      <trkpt lat="42.06474" lon="9.1292">
        <ele>2249.9</ele>
        <time>2015-07-30T08:29:50Z</time>
      </trkpt>
      <trkpt lat="42.06458" lon="9.1293">
        <ele>2247.4</ele>
        <time>2015-07-30T08:30:05Z</time>
      </trkpt>
      <trkpt lat="42.0644" lon="9.12935">
        <ele>2252.49</ele>
        <time>2015-07-30T08:30:20Z</time>
      </trkpt>
      <trkpt lat="42.06424" lon="9.12945">
        <ele>2249.83</ele>
        <time>2015-07-30T08:30:34Z</time>
      </trkpt>
      <trkpt lat="42.06406" lon="9.12955">
        <ele>2254.95</ele>
        <time>2015-07-30T08:30:48Z</time>
      </trkpt>
      <trkpt lat="42.06388" lon="9.12956">
        <ele>2253.54</ele>
        <time>2015-07-30T08:31:06Z</time>
      </trkpt>
      <trkpt lat="42.0637" lon="9.12952">
        <ele>2251.7</ele>
        <time>2015-07-30T08:31:22Z</time>
      </trkpt>
      <trkpt lat="42.06352" lon="9.12958">
        <ele>2253.94</ele>
        <time>2015-07-30T08:31:34Z</time>
      </trkpt>
      <trkpt lat="42.06334" lon="9.12961">
        <ele>2253</ele>
        <time>2015-07-30T08:31:49Z</time>
      </trkpt>
      <trkpt lat="42.06316" lon="9.12967">
        <ele>2254.17</ele>
        <time>2015-07-30T08:32:04Z</time>
      </trkpt>
      <trkpt lat="42.06298" lon="9.1297">
        <ele>2252.9</ele>
        <time>2015-07-30T08:32:20Z</time>
      </trkpt>
      <trkpt lat="42.0628" lon="9.12979">
        <ele>2252.58</ele>
        <time>2015-07-30T08:32:36Z</time>
      </trkpt>
      <trkpt lat="42.06265" lon="9.12994">
        <ele>2256.68</ele>
        <time>2015-07-30T08:33:04Z</time>
      </trkpt>
      <trkpt lat="42.0625" lon="9.1301">
        <ele>2258.59</ele>
        <time>2015-07-30T08:33:22Z</time>
      </trkpt>
      <trkpt lat="42.06241" lon="9.13032">
        <ele>2256.75</ele>
        <time>2015-07-30T08:33:40Z</time>
      </trkpt>
      <trkpt lat="42.0623" lon="9.13052">
        <ele>2257.49</ele>
        <time>2015-07-30T08:34:02Z</time>
      </trkpt>
      <trkpt lat="42.06212" lon="9.13056">
        <ele>2261.94</ele>
        <time>2015-07-30T08:34:29Z</time>
      </trkpt>
      <trkpt lat="42.06194" lon="9.13062">
        <ele>2260.24</ele>
        <time>2015-07-30T08:34:55Z</time>
      </trkpt>
      <trkpt lat="42.06185" lon="9.13083">
        <ele>2267.19</ele>
        <time>2015-07-30T08:35:26Z</time>
      </trkpt>
      <trkpt lat="42.06167" lon="9.13085">
        <ele>2276.83</ele>
        <time>2015-07-30T08:39:56Z</time>
      </trkpt>
      <trkpt lat="42.06148" lon="9.13081">
        <ele>2277.42</ele>
        <time>2015-07-30T08:40:19Z</time>
      </trkpt>
      <trkpt lat="42.06136" lon="9.131">
        <ele>2283.44</ele>
        <time>2015-07-30T08:41:05Z</time>
      </trkpt>
      <trkpt lat="42.06119" lon="9.13111">
        <ele>2274.46</ele>
        <time>2015-07-30T08:41:54Z</time>
      </trkpt>
      <trkpt lat="42.06101" lon="9.13108">
        <ele>2276.6</ele>
        <time>2015-07-30T08:42:30Z</time>
      </trkpt>
      <trkpt lat="42.06092" lon="9.13129">
        <ele>2281.8</ele>
        <time>2015-07-30T08:43:10Z</time>
      </trkpt>
      <trkpt lat="42.06079" lon="9.13146">
        <ele>2284.09</ele>
        <time>2015-07-30T08:43:30Z</time>
      </trkpt>
      <trkpt lat="42.0607" lon="9.13167">
        <ele>2286.74</ele>
        <time>2015-07-30T08:43:52Z</time>
      </trkpt>
      <trkpt lat="42.06061" lon="9.13189">
        <ele>2279.41</ele>
        <time>2015-07-30T08:44:16Z</time>
      </trkpt>
      <trkpt lat="42.06052" lon="9.1321">
        <ele>2289.33</ele>
        <time>2015-07-30T08:44:48Z</time>
      </trkpt>
      <trkpt lat="42.06041" lon="9.13229">
        <ele>2288.03</ele>
        <time>2015-07-30T08:45:14Z</time>
      </trkpt>
      <trkpt lat="42.06033" lon="9.13252">
        <ele>2324.28</ele>
        <time>2015-07-30T08:45:42Z</time>
      </trkpt>
      <trkpt lat="42.0604" lon="9.13274">
        <ele>2326.64</ele>
        <time>2015-07-30T08:46:10Z</time>
      </trkpt>
      <trkpt lat="42.06022" lon="9.13279">
        <ele>2329.47</ele>
        <time>2015-07-30T08:46:46Z</time>
      </trkpt>
      <trkpt lat="42.06009" lon="9.13296">
        <ele>2336.27</ele>
        <time>2015-07-30T08:47:13Z</time>
      </trkpt>
      <trkpt lat="42.06001" lon="9.13319">
        <ele>2340.21</ele>
        <time>2015-07-30T08:47:38Z</time>
      </trkpt>
      <trkpt lat="42.05991" lon="9.1334">
        <ele>2342.46</ele>
        <time>2015-07-30T08:47:57Z</time>
      </trkpt>
      <trkpt lat="42.05978" lon="9.13358">
        <ele>2338.99</ele>
        <time>2015-07-30T08:50:20Z</time>
      </trkpt>
      <trkpt lat="42.05975" lon="9.1338">
        <ele>2351.47</ele>
        <time>2015-07-30T08:55:34Z</time>
      </trkpt>
      <trkpt lat="42.05958" lon="9.13372">
        <ele>2342.12</ele>
        <time>2015-07-30T09:08:57Z</time>
      </trkpt>
      <trkpt lat="42.05963" lon="9.13395">
        <ele>2331.05</ele>
        <time>2015-07-30T09:10:44Z</time>
      </trkpt>
      <trkpt lat="42.05962" lon="9.1342">
        <ele>2329.08</ele>
        <time>2015-07-30T09:14:33Z</time>
      </trkpt>
      <trkpt lat="42.05968" lon="9.13443">
        <ele>2331.86</ele>
        <time>2015-07-30T09:15:06Z</time>
      </trkpt>
      <trkpt lat="42.05973" lon="9.13467">
        <ele>2320.59</ele>
        <time>2015-07-30T09:15:36Z</time>
      </trkpt>
      <trkpt lat="42.05971" lon="9.13443">
        <ele>2320.39</ele>
        <time>2015-07-30T09:20:41Z</time>
      </trkpt>
      <trkpt lat="42.05967" lon="9.13418">
        <ele>2332.01</ele>
        <time>2015-07-30T09:21:38Z</time>
      </trkpt>
      <trkpt lat="42.05955" lon="9.134">
        <ele>2330.83</ele>
        <time>2015-07-30T09:22:29Z</time>
      </trkpt>
      <trkpt lat="42.05945" lon="9.1338">
        <ele>2336.59</ele>
        <time>2015-07-30T09:23:15Z</time>
      </trkpt>
      <trkpt lat="42.05942" lon="9.13355">
        <ele>2330.63</ele>
        <time>2015-07-30T09:23:40Z</time>
      </trkpt>
      <trkpt lat="42.05957" lon="9.13341">
        <ele>2334.13</ele>
        <time>2015-07-30T09:24:05Z</time>
      </trkpt>
      <trkpt lat="42.05973" lon="9.1333">
        <ele>2332.16</ele>
        <time>2015-07-30T09:24:36Z</time>
      </trkpt>
      <trkpt lat="42.05991" lon="9.13329">
        <ele>2329.46</ele>
        <time>2015-07-30T09:29:37Z</time>
      </trkpt>
      <trkpt lat="42.06003" lon="9.1331">
        <ele>2333.94</ele>
        <time>2015-07-30T09:29:57Z</time>
      </trkpt>
      <trkpt lat="42.06012" lon="9.13289">
        <ele>2328.34</ele>
        <time>2015-07-30T09:30:27Z</time>
      </trkpt>
      <trkpt lat="42.06029" lon="9.13278">
        <ele>2324.37</ele>
        <time>2015-07-30T09:31:09Z</time>
      </trkpt>
      <trkpt lat="42.0604" lon="9.13258">
        <ele>2319.5</ele>
        <time>2015-07-30T09:31:48Z</time>
      </trkpt>
      <trkpt lat="42.06049" lon="9.13236">
        <ele>2324.28</ele>
        <time>2015-07-30T09:32:12Z</time>
      </trkpt>
      <trkpt lat="42.0605" lon="9.13211">
        <ele>2316.93</ele>
        <time>2015-07-30T09:32:47Z</time>
      </trkpt>
      <trkpt lat="42.06059" lon="9.13189">
        <ele>2315.7</ele>
        <time>2015-07-30T09:33:17Z</time>
      </trkpt>
      <trkpt lat="42.06071" lon="9.13171">
        <ele>2308.18</ele>
        <time>2015-07-30T09:33:36Z</time>
      </trkpt>
      <trkpt lat="42.06081" lon="9.1315">
        <ele>2309.63</ele>
        <time>2015-07-30T09:34:01Z</time>
      </trkpt>
      <trkpt lat="42.06088" lon="9.13128">
        <ele>2303.46</ele>
        <time>2015-07-30T09:34:29Z</time>
      </trkpt>
      <trkpt lat="42.06103" lon="9.13112">
        <ele>2294.79</ele>
        <time>2015-07-30T09:35:28Z</time>
      </trkpt>
      <trkpt lat="42.06114" lon="9.13094">
        <ele>2288.49</ele>
        <time>2015-07-30T09:36:09Z</time>
      </trkpt>
      <trkpt lat="42.06127" lon="9.13076">
        <ele>2285.33</ele>
        <time>2015-07-30T09:36:49Z</time>
      </trkpt>
      <trkpt lat="42.06141" lon="9.1306">
        <ele>2279.16</ele>
        <time>2015-07-30T09:37:35Z</time>
      </trkpt>
      <trkpt lat="42.06153" lon="9.13041">
        <ele>2271.36</ele>
        <time>2015-07-30T09:38:02Z</time>
      </trkpt>
      <trkpt lat="42.06168" lon="9.13027">
        <ele>2264.47</ele>
        <time>2015-07-30T09:39:20Z</time>
      </trkpt>
      <trkpt lat="42.06187" lon="9.13023">
        <ele>2263.68</ele>
        <time>2015-07-30T09:39:45Z</time>
      </trkpt>
      <trkpt lat="42.06203" lon="9.13011">
        <ele>2259.71</ele>
        <time>2015-07-30T09:40:07Z</time>
      </trkpt>
      <trkpt lat="42.0622" lon="9.13003">
        <ele>2259.48</ele>
        <time>2015-07-30T09:40:23Z</time>
      </trkpt>
      <trkpt lat="42.06238" lon="9.12999">
        <ele>2252.67</ele>
        <time>2015-07-30T09:40:42Z</time>
      </trkpt>
      <trkpt lat="42.06256" lon="9.12989">
        <ele>2252.67</ele>
        <time>2015-07-30T09:41:03Z</time>
      </trkpt>
      <trkpt lat="42.06273" lon="9.12981">
        <ele>2246.84</ele>
        <time>2015-07-30T09:41:21Z</time>
      </trkpt>
      <trkpt lat="42.0629" lon="9.12974">
        <ele>2249.22</ele>
        <time>2015-07-30T09:41:37Z</time>
      </trkpt>
      <trkpt lat="42.06309" lon="9.1297">
        <ele>2248.67</ele>
        <time>2015-07-30T09:41:55Z</time>
      </trkpt>
      <trkpt lat="42.06327" lon="9.12963">
        <ele>2251.22</ele>
        <time>2015-07-30T09:42:08Z</time>
      </trkpt>
      <trkpt lat="42.06345" lon="9.12958">
        <ele>2248.92</ele>
        <time>2015-07-30T09:42:20Z</time>
      </trkpt>
      <trkpt lat="42.06364" lon="9.12958">
        <ele>2248.42</ele>
        <time>2015-07-30T09:42:35Z</time>
      </trkpt>
      <trkpt lat="42.06383" lon="9.12955">
        <ele>2251.38</ele>
        <time>2015-07-30T09:42:49Z</time>
      </trkpt>
      <trkpt lat="42.06402" lon="9.12957">
        <ele>2254.85</ele>
        <time>2015-07-30T09:43:05Z</time>
      </trkpt>
      <trkpt lat="42.0642" lon="9.12954">
        <ele>2252.35</ele>
        <time>2015-07-30T09:43:21Z</time>
      </trkpt>
      <trkpt lat="42.06436" lon="9.1294">
        <ele>2249.01</ele>
        <time>2015-07-30T09:43:38Z</time>
      </trkpt>
      <trkpt lat="42.06454" lon="9.12935">
        <ele>2250.24</ele>
        <time>2015-07-30T09:43:51Z</time>
      </trkpt>
      <trkpt lat="42.06471" lon="9.12924">
        <ele>2251.21</ele>
        <time>2015-07-30T09:44:05Z</time>
      </trkpt>
      <trkpt lat="42.06486" lon="9.12912">
        <ele>2252.47</ele>
        <time>2015-07-30T09:44:18Z</time>
      </trkpt>
      <trkpt lat="42.06503" lon="9.12901">
        <ele>2243.14</ele>
        <time>2015-07-30T09:44:30Z</time>
      </trkpt>
      <trkpt lat="42.0652" lon="9.12895">
        <ele>2245.71</ele>
        <time>2015-07-30T09:44:45Z</time>
      </trkpt>
      <trkpt lat="42.06539" lon="9.12891">
        <ele>2246.02</ele>
        <time>2015-07-30T09:45:00Z</time>
      </trkpt>
      <trkpt lat="42.06557" lon="9.12885">
        <ele>2242.71</ele>
        <time>2015-07-30T09:45:15Z</time>
      </trkpt>
      <trkpt lat="42.06574" lon="9.12872">
        <ele>2242.55</ele>
        <time>2015-07-30T09:45:32Z</time>
      </trkpt>
      <trkpt lat="42.06591" lon="9.12862">
        <ele>2240.81</ele>
        <time>2015-07-30T09:45:45Z</time>
      </trkpt>
      <trkpt lat="42.06609" lon="9.12854">
        <ele>2240.57</ele>
        <time>2015-07-30T09:45:59Z</time>
      </trkpt>
      <trkpt lat="42.06626" lon="9.12845">
        <ele>2241.38</ele>
        <time>2015-07-30T09:46:18Z</time>
      </trkpt>
      <trkpt lat="42.06642" lon="9.12856">
        <ele>2238.98</ele>
        <time>2015-07-30T09:46:38Z</time>
      </trkpt>
      <trkpt lat="42.06633" lon="9.12877">
        <ele>2237.6</ele>
        <time>2015-07-30T09:47:31Z</time>
      </trkpt>
      <trkpt lat="42.06646" lon="9.12895">
        <ele>2229.29</ele>
        <time>2015-07-30T09:49:01Z</time>
      </trkpt>
      <trkpt lat="42.06661" lon="9.12909">
        <ele>2220.68</ele>
        <time>2015-07-30T09:50:20Z</time>
      </trkpt>
      <trkpt lat="42.06679" lon="9.12909">
        <ele>2204.86</ele>
        <time>2015-07-30T09:53:33Z</time>
      </trkpt>
      <trkpt lat="42.06696" lon="9.12918">
        <ele>2202.36</ele>
        <time>2015-07-30T09:54:30Z</time>
      </trkpt>
      <trkpt lat="42.06708" lon="9.12936">
        <ele>2189.03</ele>
        <time>2015-07-30T09:55:21Z</time>
      </trkpt>
      <trkpt lat="42.06725" lon="9.12944">
        <ele>2183.2</ele>
        <time>2015-07-30T09:55:48Z</time>
      </trkpt>
      <trkpt lat="42.06742" lon="9.12957">
        <ele>2183.41</ele>
        <time>2015-07-30T09:56:07Z</time>
      </trkpt>
      <trkpt lat="42.06754" lon="9.12975">
        <ele>2173.6</ele>
        <time>2015-07-30T09:56:43Z</time>
      </trkpt>
      <trkpt lat="42.06759" lon="9.12998">
        <ele>2174.81</ele>
        <time>2015-07-30T09:57:22Z</time>
      </trkpt>
      <trkpt lat="42.0676" lon="9.13024">
        <ele>2165.35</ele>
        <time>2015-07-30T09:58:24Z</time>
      </trkpt>
      <trkpt lat="42.06766" lon="9.13047">
        <ele>2156.95</ele>
        <time>2015-07-30T09:58:49Z</time>
      </trkpt>
      <trkpt lat="42.06776" lon="9.13068">
        <ele>2153.29</ele>
        <time>2015-07-30T09:59:08Z</time>
      </trkpt>
      <trkpt lat="42.06788" lon="9.13086">
        <ele>2149.51</ele>
        <time>2015-07-30T10:00:02Z</time>
      </trkpt>
      <trkpt lat="42.06798" lon="9.13106">
        <ele>2140.54</ele>
        <time>2015-07-30T10:00:31Z</time>
      </trkpt>
      <trkpt lat="42.06784" lon="9.13123">
        <ele>2133.5</ele>
        <time>2015-07-30T10:01:03Z</time>
      </trkpt>
      <trkpt lat="42.06766" lon="9.13127">
        <ele>2124.98</ele>
        <time>2015-07-30T10:02:02Z</time>
      </trkpt>
      <trkpt lat="42.06755" lon="9.13146">
        <ele>2115.72</ele>
        <time>2015-07-30T10:03:09Z</time>
      </trkpt>
      <trkpt lat="42.0675" lon="9.13171">
        <ele>2111.86</ele>
        <time>2015-07-30T10:03:49Z</time>
      </trkpt>
      <trkpt lat="42.06732" lon="9.13164">
        <ele>2105.24</ele>
        <time>2015-07-30T10:04:19Z</time>
      </trkpt>
      <trkpt lat="42.06714" lon="9.13161">
        <ele>2099.74</ele>
        <time>2015-07-30T10:04:44Z</time>
      </trkpt>
      <trkpt lat="42.06698" lon="9.13173">
        <ele>2095.97</ele>
        <time>2015-07-30T10:04:59Z</time>
      </trkpt>
      <trkpt lat="42.06679" lon="9.13177">
        <ele>2092.47</ele>
        <time>2015-07-30T10:05:41Z</time>
      </trkpt>
      <trkpt lat="42.06668" lon="9.13196">
        <ele>2091.08</ele>
        <time>2015-07-30T10:05:59Z</time>
      </trkpt>
      <trkpt lat="42.0666" lon="9.13219">
        <ele>2091.09</ele>
        <time>2015-07-30T10:06:18Z</time>
      </trkpt>
      <trkpt lat="42.06673" lon="9.13236">
        <ele>2113.36</ele>
        <time>2015-07-30T11:58:35Z</time>
      </trkpt>
      <trkpt lat="42.06686" lon="9.13252">
        <ele>2117.4</ele>
        <time>2015-07-30T11:59:52Z</time>
      </trkpt>
      <trkpt lat="42.0669" lon="9.13276">
        <ele>2122.14</ele>
        <time>2015-07-30T12:00:14Z</time>
      </trkpt>
      <trkpt lat="42.06699" lon="9.13297">
        <ele>2121.5</ele>
        <time>2015-07-30T12:00:33Z</time>
      </trkpt>
      <trkpt lat="42.0671" lon="9.13318">
        <ele>2120.97</ele>
        <time>2015-07-30T12:00:53Z</time>
      </trkpt>
      <trkpt lat="42.06718" lon="9.1334">
        <ele>2116.66</ele>
        <time>2015-07-30T12:01:34Z</time>
      </trkpt>
      <trkpt lat="42.06713" lon="9.13364">
        <ele>2110.47</ele>
        <time>2015-07-30T12:02:35Z</time>
      </trkpt>
      <trkpt lat="42.0672" lon="9.13388">
        <ele>2109.33</ele>
        <time>2015-07-30T12:02:53Z</time>
      </trkpt>
      <trkpt lat="42.06723" lon="9.13412">
        <ele>2111.58</ele>
        <time>2015-07-30T12:03:10Z</time>
      </trkpt>
      <trkpt lat="42.06725" lon="9.13436">
        <ele>2114.43</ele>
        <time>2015-07-30T12:03:33Z</time>
      </trkpt>
      <trkpt lat="42.06743" lon="9.13439">
        <ele>2109.63</ele>
        <time>2015-07-30T12:03:59Z</time>
      </trkpt>
      <trkpt lat="42.0676" lon="9.13432">
        <ele>2109.45</ele>
        <time>2015-07-30T12:04:31Z</time>
      </trkpt>
      <trkpt lat="42.06779" lon="9.1343">
        <ele>2108.41</ele>
        <time>2015-07-30T12:05:15Z</time>
      </trkpt>
      <trkpt lat="42.06796" lon="9.13437">
        <ele>2107.37</ele>
        <time>2015-07-30T12:05:37Z</time>
      </trkpt>
      <trkpt lat="42.06809" lon="9.13455">
        <ele>2104.97</ele>
        <time>2015-07-30T12:06:30Z</time>
      </trkpt>
      <trkpt lat="42.06819" lon="9.13475">
        <ele>2099.73</ele>
        <time>2015-07-30T12:07:52Z</time>
      </trkpt>
      <trkpt lat="42.06833" lon="9.13491">
        <ele>2088.28</ele>
        <time>2015-07-30T12:10:20Z</time>
      </trkpt>
      <trkpt lat="42.06851" lon="9.13493">
        <ele>2071.34</ele>
        <time>2015-07-30T12:12:30Z</time>
      </trkpt>
      <trkpt lat="42.06869" lon="9.13497">
        <ele>2061.78</ele>
        <time>2015-07-30T12:13:27Z</time>
      </trkpt>
      <trkpt lat="42.06881" lon="9.13515">
        <ele>2061.9</ele>
        <time>2015-07-30T12:14:14Z</time>
      </trkpt>
      <trkpt lat="42.069" lon="9.13512">
        <ele>2056.04</ele>
        <time>2015-07-30T12:14:30Z</time>
      </trkpt>
      <trkpt lat="42.06915" lon="9.13528">
        <ele>2056.73</ele>
        <time>2015-07-30T12:14:44Z</time>
      </trkpt>
      <trkpt lat="42.06923" lon="9.1355">
        <ele>2054.81</ele>
        <time>2015-07-30T12:15:00Z</time>
      </trkpt>
      <trkpt lat="42.06931" lon="9.13573">
        <ele>2053.46</ele>
        <time>2015-07-30T12:15:17Z</time>
      </trkpt>
      <trkpt lat="42.06943" lon="9.13592">
        <ele>2050.6</ele>
        <time>2015-07-30T12:15:40Z</time>
      </trkpt>
      <trkpt lat="42.06943" lon="9.13617">
        <ele>2048.38</ele>
        <time>2015-07-30T12:15:59Z</time>
      </trkpt>
      <trkpt lat="42.06957" lon="9.13632">
        <ele>2048.18</ele>
        <time>2015-07-30T12:16:22Z</time>
      </trkpt>
      <trkpt lat="42.06969" lon="9.13652">
        <ele>2032.62</ele>
        <time>2015-07-30T12:19:44Z</time>
      </trkpt>
      <trkpt lat="42.06973" lon="9.13677">
        <ele>2023.99</ele>
        <time>2015-07-30T12:20:00Z</time>
      </trkpt>
      <trkpt lat="42.06973" lon="9.13701">
        <ele>2021.34</ele>
        <time>2015-07-30T12:20:18Z</time>
      </trkpt>
      <trkpt lat="42.06983" lon="9.13722">
        <ele>2014.53</ele>
        <time>2015-07-30T12:20:35Z</time>
      </trkpt>
      <trkpt lat="42.06996" lon="9.1374">
        <ele>2009.82</ele>
        <time>2015-07-30T12:21:28Z</time>
      </trkpt>
      <trkpt lat="42.07011" lon="9.13752">
        <ele>2005.37</ele>
        <time>2015-07-30T12:22:45Z</time>
      </trkpt>
      <trkpt lat="42.07027" lon="9.13765">
        <ele>1993.28</ele>
        <time>2015-07-30T12:23:07Z</time>
      </trkpt>
      <trkpt lat="42.07041" lon="9.13781">
        <ele>1991.85</ele>
        <time>2015-07-30T12:23:30Z</time>
      </trkpt>
      <trkpt lat="42.07048" lon="9.13804">
        <ele>1994.15</ele>
        <time>2015-07-30T12:24:10Z</time>
      </trkpt>
      <trkpt lat="42.0705" lon="9.13828">
        <ele>1990.41</ele>
        <time>2015-07-30T12:24:45Z</time>
      </trkpt>
      <trkpt lat="42.07052" lon="9.13853">
        <ele>1979.22</ele>
        <time>2015-07-30T12:25:36Z</time>
      </trkpt>
      <trkpt lat="42.07051" lon="9.13878">
        <ele>1983.15</ele>
        <time>2015-07-30T12:26:17Z</time>
      </trkpt>
      <trkpt lat="42.07054" lon="9.13903">
        <ele>1969.77</ele>
        <time>2015-07-30T12:27:16Z</time>
      </trkpt>
      <trkpt lat="42.07055" lon="9.13927">
        <ele>1971.69</ele>
        <time>2015-07-30T12:27:52Z</time>
      </trkpt>
      <trkpt lat="42.07054" lon="9.13951">
        <ele>1965.42</ele>
        <time>2015-07-30T12:28:35Z</time>
      </trkpt>
      <trkpt lat="42.07058" lon="9.13975">
        <ele>1957.6</ele>
        <time>2015-07-30T12:29:18Z</time>
      </trkpt>
      <trkpt lat="42.07057" lon="9.14">
        <ele>1950.72</ele>
        <time>2015-07-30T12:29:53Z</time>
      </trkpt>
      <trkpt lat="42.07055" lon="9.14025">
        <ele>1943.07</ele>
        <time>2015-07-30T12:30:40Z</time>
      </trkpt>
      <trkpt lat="42.07058" lon="9.14049">
        <ele>1938.96</ele>
        <time>2015-07-30T12:31:25Z</time>
      </trkpt>
      <trkpt lat="42.07061" lon="9.14073">
        <ele>1934.68</ele>
        <time>2015-07-30T12:31:48Z</time>
      </trkpt>
      <trkpt lat="42.07056" lon="9.14097">
        <ele>1929.54</ele>
        <time>2015-07-30T12:32:20Z</time>
      </trkpt>
      <trkpt lat="42.0705" lon="9.1412">
        <ele>1924.67</ele>
        <time>2015-07-30T12:32:46Z</time>
      </trkpt>
      <trkpt lat="42.07053" lon="9.14145">
        <ele>1917.23</ele>
        <time>2015-07-30T12:33:15Z</time>
      </trkpt>
      <trkpt lat="42.07071" lon="9.14139">
        <ele>1914.06</ele>
        <time>2015-07-30T12:34:01Z</time>
      </trkpt>
      <trkpt lat="42.07086" lon="9.14154">
        <ele>1910.63</ele>
        <time>2015-07-30T12:34:28Z</time>
      </trkpt>
      <trkpt lat="42.07104" lon="9.14161">
        <ele>1904.91</ele>
        <time>2015-07-30T12:34:53Z</time>
      </trkpt>
      <trkpt lat="42.07123" lon="9.14165">
        <ele>1901.38</ele>
        <time>2015-07-30T12:35:08Z</time>
      </trkpt>
      <trkpt lat="42.07136" lon="9.14181">
        <ele>1905.72</ele>
        <time>2015-07-30T12:35:22Z</time>
      </trkpt>
      <trkpt lat="42.07153" lon="9.14191">
        <ele>1900.92</ele>
        <time>2015-07-30T12:35:43Z</time>
      </trkpt>
      <trkpt lat="42.07171" lon="9.1419">
        <ele>1897.48</ele>
        <time>2015-07-30T12:36:06Z</time>
      </trkpt>
      <trkpt lat="42.07181" lon="9.14211">
        <ele>1896.35</ele>
        <time>2015-07-30T12:36:21Z</time>
      </trkpt>
      <trkpt lat="42.07193" lon="9.1423">
        <ele>1898.08</ele>
        <time>2015-07-30T12:36:40Z</time>
      </trkpt>
      <trkpt lat="42.07212" lon="9.14229">
        <ele>1903.11</ele>
        <time>2015-07-30T12:37:31Z</time>
      </trkpt>
      <trkpt lat="42.07225" lon="9.14247">
        <ele>1899.64</ele>
        <time>2015-07-30T12:37:51Z</time>
      </trkpt>
      <trkpt lat="42.07227" lon="9.14272">
        <ele>1895.3</ele>
        <time>2015-07-30T12:38:02Z</time>
      </trkpt>
      <trkpt lat="42.07229" lon="9.14297">
        <ele>1892.25</ele>
        <time>2015-07-30T12:38:16Z</time>
      </trkpt>
      <trkpt lat="42.07242" lon="9.14314">
        <ele>1893.14</ele>
        <time>2015-07-30T12:38:34Z</time>
      </trkpt>
      <trkpt lat="42.0725" lon="9.14336">
        <ele>1897.47</ele>
        <time>2015-07-30T12:39:12Z</time>
      </trkpt>
      <trkpt lat="42.07264" lon="9.14355">
        <ele>1889.8</ele>
        <time>2015-07-30T12:39:31Z</time>
      </trkpt>
      <trkpt lat="42.07281" lon="9.14364">
        <ele>1885.71</ele>
        <time>2015-07-30T12:40:03Z</time>
      </trkpt>
      <trkpt lat="42.07298" lon="9.1437">
        <ele>1880.04</ele>
        <time>2015-07-30T12:40:36Z</time>
      </trkpt>
      <trkpt lat="42.07301" lon="9.14394">
        <ele>1880.45</ele>
        <time>2015-07-30T12:41:13Z</time>
      </trkpt>
      <trkpt lat="42.07307" lon="9.14417">
        <ele>1870.13</ele>
        <time>2015-07-30T12:42:36Z</time>
      </trkpt>
      <trkpt lat="42.07303" lon="9.14441">
        <ele>1860.25</ele>
        <time>2015-07-30T12:43:30Z</time>
      </trkpt>
      <trkpt lat="42.07314" lon="9.14461">
        <ele>1855.97</ele>
        <time>2015-07-30T12:44:43Z</time>
      </trkpt>
      <trkpt lat="42.07325" lon="9.14481">
        <ele>1848.34</ele>
        <time>2015-07-30T12:45:28Z</time>
      </trkpt>
      <trkpt lat="42.07331" lon="9.14504">
        <ele>1837.11</ele>
        <time>2015-07-30T12:46:04Z</time>
      </trkpt>
      <trkpt lat="42.07344" lon="9.14522">
        <ele>1831.72</ele>
        <time>2015-07-30T12:46:46Z</time>
      </trkpt>
      <trkpt lat="42.07338" lon="9.14545">
        <ele>1826.53</ele>
        <time>2015-07-30T12:48:05Z</time>
      </trkpt>
      <trkpt lat="42.07327" lon="9.14565">
        <ele>1820.69</ele>
        <time>2015-07-30T12:48:55Z</time>
      </trkpt>
      <trkpt lat="42.07311" lon="9.14578">
        <ele>1808.12</ele>
        <time>2015-07-30T12:50:07Z</time>
      </trkpt>
      <trkpt lat="42.073" lon="9.14597">
        <ele>1793.6</ele>
        <time>2015-07-30T12:51:16Z</time>
      </trkpt>
      <trkpt lat="42.07304" lon="9.1462">
        <ele>1785.54</ele>
        <time>2015-07-30T12:52:13Z</time>
      </trkpt>
      <trkpt lat="42.07314" lon="9.14642">
        <ele>1777.39</ele>
        <time>2015-07-30T12:52:43Z</time>
      </trkpt>
      <trkpt lat="42.07325" lon="9.14662">
        <ele>1773.47</ele>
        <time>2015-07-30T12:53:06Z</time>
      </trkpt>
      <trkpt lat="42.07339" lon="9.14678">
        <ele>1767.41</ele>
        <time>2015-07-30T12:53:34Z</time>
      </trkpt>
      <trkpt lat="42.0735" lon="9.14699">
        <ele>1764.78</ele>
        <time>2015-07-30T12:54:08Z</time>
      </trkpt>
      <trkpt lat="42.07363" lon="9.14716">
        <ele>1758.6</ele>
        <time>2015-07-30T12:54:43Z</time>
      </trkpt>
      <trkpt lat="42.07375" lon="9.14735">
        <ele>1756.11</ele>
        <time>2015-07-30T12:55:07Z</time>
      </trkpt>
      <trkpt lat="42.07392" lon="9.14744">
        <ele>1751.96</ele>
        <time>2015-07-30T12:55:43Z</time>
      </trkpt>
      <trkpt lat="42.07404" lon="9.14763">
        <ele>1752.23</ele>
        <time>2015-07-30T12:56:05Z</time>
      </trkpt>
      <trkpt lat="42.07406" lon="9.14788">
        <ele>1746.7</ele>
        <time>2015-07-30T12:56:23Z</time>
      </trkpt>
      <trkpt lat="42.07406" lon="9.14812">
        <ele>1743.03</ele>
        <time>2015-07-30T12:56:44Z</time>
      </trkpt>
      <trkpt lat="42.07417" lon="9.14832">
        <ele>1743.41</ele>
        <time>2015-07-30T12:57:03Z</time>
      </trkpt>
      <trkpt lat="42.07417" lon="9.14857">
        <ele>1740.59</ele>
        <time>2015-07-30T12:57:24Z</time>
      </trkpt>
      <trkpt lat="42.07417" lon="9.14882">
        <ele>1736.59</ele>
        <time>2015-07-30T12:57:49Z</time>
      </trkpt>
      <trkpt lat="42.07431" lon="9.14898">
        <ele>1734.71</ele>
        <time>2015-07-30T12:58:13Z</time>
      </trkpt>
      <trkpt lat="42.07445" lon="9.14914">
        <ele>1737.66</ele>
        <time>2015-07-30T12:58:40Z</time>
      </trkpt>
      <trkpt lat="42.07461" lon="9.14902">
        <ele>1726.23</ele>
        <time>2015-07-30T12:59:44Z</time>
      </trkpt>
      <trkpt lat="42.07465" lon="9.14927">
        <ele>1714.06</ele>
        <time>2015-07-30T13:00:11Z</time>
      </trkpt>
      <trkpt lat="42.07474" lon="9.14949">
        <ele>1706.52</ele>
        <time>2015-07-30T13:00:38Z</time>
      </trkpt>
      <trkpt lat="42.07479" lon="9.14925">
        <ele>1706.92</ele>
        <time>2015-07-30T13:01:00Z</time>
      </trkpt>
      <trkpt lat="42.07488" lon="9.14903">
        <ele>1705.16</ele>
        <time>2015-07-30T13:01:36Z</time>
      </trkpt>
      <trkpt lat="42.07498" lon="9.14883">
        <ele>1697.84</ele>
        <time>2015-07-30T13:01:51Z</time>
      </trkpt>
      <trkpt lat="42.07504" lon="9.14858">
        <ele>1692.24</ele>
        <time>2015-07-30T13:02:08Z</time>
      </trkpt>
      <trkpt lat="42.07508" lon="9.14833">
        <ele>1692.64</ele>
        <time>2015-07-30T13:02:22Z</time>
      </trkpt>
      <trkpt lat="42.07509" lon="9.14809">
        <ele>1687.59</ele>
        <time>2015-07-30T13:02:44Z</time>
      </trkpt>
      <trkpt lat="42.07522" lon="9.14826">
        <ele>1670.25</ele>
        <time>2015-07-30T13:03:28Z</time>
      </trkpt>
      <trkpt lat="42.0753" lon="9.1485">
        <ele>1665.68</ele>
        <time>2015-07-30T13:04:08Z</time>
      </trkpt>
      <trkpt lat="42.07539" lon="9.14872">
        <ele>1665.78</ele>
        <time>2015-07-30T13:04:38Z</time>
      </trkpt>
      <trkpt lat="42.07544" lon="9.14897">
        <ele>1667.03</ele>
        <time>2015-07-30T13:04:49Z</time>
      </trkpt>
      <trkpt lat="42.07545" lon="9.14922">
        <ele>1667.38</ele>
        <time>2015-07-30T13:05:03Z</time>
      </trkpt>
      <trkpt lat="42.0754" lon="9.14946">
        <ele>1652.75</ele>
        <time>2015-07-30T13:05:47Z</time>
      </trkpt>
      <trkpt lat="42.07546" lon="9.1497">
        <ele>1648.85</ele>
        <time>2015-07-30T13:06:07Z</time>
      </trkpt>
      <trkpt lat="42.07556" lon="9.1499">
        <ele>1643.2</ele>
        <time>2015-07-30T13:06:37Z</time>
      </trkpt>
      <trkpt lat="42.07565" lon="9.15012">
        <ele>1637.99</ele>
        <time>2015-07-30T13:06:48Z</time>
      </trkpt>
      <trkpt lat="42.07584" lon="9.15014">
        <ele>1643.36</ele>
        <time>2015-07-30T13:08:10Z</time>
      </trkpt>
      <trkpt lat="42.07601" lon="9.15009">
        <ele>1631.22</ele>
        <time>2015-07-30T13:09:03Z</time>
      </trkpt>
      <trkpt lat="42.07619" lon="9.15009">
        <ele>1620.32</ele>
        <time>2015-07-30T13:09:38Z</time>
      </trkpt>
      <trkpt lat="42.07638" lon="9.15007">
        <ele>1610.72</ele>
        <time>2015-07-30T13:10:07Z</time>
      </trkpt>
      <trkpt lat="42.07647" lon="9.15028">
        <ele>1603.51</ele>
        <time>2015-07-30T13:10:31Z</time>
      </trkpt>
      <trkpt lat="42.07661" lon="9.15011">
        <ele>1601.66</ele>
        <time>2015-07-30T13:10:49Z</time>
      </trkpt>
      <trkpt lat="42.07679" lon="9.15003">
        <ele>1593.03</ele>
        <time>2015-07-30T13:11:04Z</time>
      </trkpt>
      <trkpt lat="42.07695" lon="9.15014">
        <ele>1590.73</ele>
        <time>2015-07-30T13:11:18Z</time>
      </trkpt>
      <trkpt lat="42.07712" lon="9.15024">
        <ele>1595.64</ele>
        <time>2015-07-30T13:11:34Z</time>
      </trkpt>
      <trkpt lat="42.07729" lon="9.15015">
        <ele>1598.47</ele>
        <time>2015-07-30T13:12:06Z</time>
      </trkpt>
      <trkpt lat="42.07662" lon="9.15021">
        <ele>1599.92</ele>
        <time>2015-07-30T13:16:12Z</time>
      </trkpt>
      <trkpt lat="42.07643" lon="9.1502">
        <ele>1591.22</ele>
        <time>2015-07-30T13:16:26Z</time>
      </trkpt>
    </trkseg>
  </trk>
</gpx>